^^
Grace C. Lehan Memorial Weather Station Historical Data
Daily Summary for August 7, 2021 Units:  English    Metric   Both
Daily Weekly Monthly Yearly
  High: Low: Average:
Temperature: 81.3 °F 57.5 °F 68.2 °F
Dew Point: 63.7 °F 54.8 °F 58.8 °F
Humidity: 92% 48.5% 74%
Wind Speed: 3.6mph 0mph 0.3mph
Wind Gust: 13mph - -
Wind- - West
Pressure: 29.94 in 29.85 in -
Precipitation: 0.00 in    
 
 
Tabular Data for August 7, 2021
Time Temperature Dew Point Pressure Wind Wind Speed Wind Gust Humidity Rainfall Rate (Hourly) solar
00:00 63.3 °F 57.7 °F 29.85 in Calm   2 mph 82% 0.00 in 0 W/m2
00:09 63.1 °F 57.7 °F 29.86 in Calm   1 mph 82.5% 0.00 in 0 W/m2
00:14 63.1 °F 57.5 °F 29.86 in WNW 0.1 mph 2 mph 82% 0.00 in 0 W/m2
00:19 63.1 °F 57.5 °F 29.86 in WNW 0.1 mph 2 mph 82% 0.00 in 0 W/m2
00:24 63 °F 57.4 °F 29.86 in Calm   2 mph 82% 0.00 in 0 W/m2
00:29 63 °F 57.4 °F 29.86 in Calm   2 mph 82% 0.00 in 0 W/m2
00:34 62.9 °F 57.3 °F 29.86 in Calm   2 mph 82% 0.00 in 0 W/m2
00:39 62.9 °F 57.4 °F 29.86 in Calm   1 mph 82.4% 0.00 in 0 W/m2
00:44 62.7 °F 57.5 °F 29.86 in Calm   1 mph 83% 0.00 in 0 W/m2
00:49 62.6 °F 57.4 °F 29.86 in Calm   1 mph 83% 0.00 in 0 W/m2
00:54 62.4 °F 57.2 °F 29.86 in Calm   1 mph 83% 0.00 in 0 W/m2
00:59 62.3 °F 57.1 °F 29.86 in Calm   1 mph 83% 0.00 in 0 W/m2
01:04 62.2 °F 56.9 °F 29.86 in Calm   1 mph 83% 0.00 in 0 W/m2
01:09 62.1 °F 56.9 °F 29.85 in Calm     83% 0.00 in 0 W/m2
01:14 62 °F 57.1 °F 29.85 in Calm     84% 0.00 in 0 W/m2
01:19 61.9 °F 57 °F 29.85 in Calm   1 mph 84% 0.00 in 0 W/m2
01:24 61.8 °F 56.9 °F 29.85 in Calm   1 mph 84% 0.00 in 0 W/m2
01:29 61.6 °F 56.9 °F 29.85 in WNW 0.1 mph 1 mph 84.4% 0.00 in 0 W/m2
01:34 61.5 °F 56.9 °F 29.85 in Calm   2 mph 85% 0.00 in 0 W/m2
01:39 61.3 °F 56.8 °F 29.85 in Calm   2 mph 85% 0.00 in 0 W/m2
01:44 61.2 °F 56.7 °F 29.85 in Calm   2 mph 85% 0.00 in 0 W/m2
01:49 61.1 °F 56.9 °F 29.85 in Calm   2 mph 86% 0.00 in 0 W/m2
01:54 61.1 °F 56.9 °F 29.85 in Calm   2 mph 86% 0.00 in 0 W/m2
01:59 60.9 °F 56.7 °F 29.85 in Calm   2 mph 86% 0.00 in 0 W/m2
02:04 60.8 °F 56.6 °F 29.85 in Calm   2 mph 86% 0.00 in 0 W/m2
02:09 60.7 °F 56.7 °F 29.85 in Calm     86.7% 0.00 in 0 W/m2
02:14 60.5 °F 56.6 °F 29.85 in Calm     87% 0.00 in 0 W/m2
02:19 60.4 °F 56.5 °F 29.85 in Calm     87% 0.00 in 0 W/m2
02:24 60.3 °F 56.4 °F 29.85 in Calm     87% 0.00 in 0 W/m2
02:29 60.2 °F 56.3 °F 29.85 in WNW 0.1 mph 4 mph 87% 0.00 in 0 W/m2
02:34 60.2 °F 56.3 °F 29.85 in Calm   4 mph 87% 0.00 in 0 W/m2
02:39 60.2 °F 56.3 °F 29.86 in Calm   1 mph 87% 0.00 in 0 W/m2
02:44 60.2 °F 56.3 °F 29.86 in Calm   1 mph 87% 0.00 in 0 W/m2
02:49 60.3 °F 56.4 °F 29.86 in WNW 0.1 mph 3 mph 87% 0.00 in 0 W/m2
02:54 60.3 °F 56.4 °F 29.86 in Calm   3 mph 87% 0.00 in 0 W/m2
02:59 60.4 °F 56.5 °F 29.86 in Calm   3 mph 87% 0.00 in 0 W/m2
03:04 60.4 °F 56.5 °F 29.86 in Calm   3 mph 87% 0.00 in 0 W/m2
03:09 60.4 °F 56.5 °F 29.86 in Calm     87% 0.00 in 0 W/m2
03:14 60.3 °F 56.4 °F 29.86 in Calm     87% 0.00 in 0 W/m2
03:19 60.2 °F 56.3 °F 29.86 in Calm     87% 0.00 in 0 W/m2
03:24 60.2 °F 56.3 °F 29.86 in Calm     87% 0.00 in 0 W/m2
03:29 60.1 °F 56.2 °F 29.86 in Calm     87% 0.00 in 0 W/m2
03:34 60 °F 56.2 °F 29.86 in Calm     87.2% 0.00 in 0 W/m2
03:39 60 °F 56.4 °F 29.86 in Calm     88% 0.00 in 0 W/m2
03:44 59.9 °F 56.3 °F 29.86 in Calm     88% 0.00 in 0 W/m2
03:49 59.8 °F 56.2 °F 29.86 in Calm   1 mph 88% 0.00 in 0 W/m2
03:54 59.8 °F 56.2 °F 29.86 in Calm   1 mph 88% 0.00 in 0 W/m2
03:59 59.6 °F 56.1 °F 29.86 in Calm   1 mph 88% 0.00 in 0 W/m2
04:00 59.6 °F 56.1 °F 29.86 in Calm   1 mph 88% 0.00 in 0 W/m2
04:09 59.4 °F 56.1 °F 29.87 in Calm     88.8% 0.00 in 0 W/m2
04:14 59.3 °F 56.1 °F 29.87 in WNW 0.2 mph 3 mph 89% 0.00 in 0 W/m2
04:19 59.2 °F 56 °F 29.87 in Calm   3 mph 89% 0.00 in 0 W/m2
04:24 59.1 °F 55.9 °F 29.87 in Calm   3 mph 89% 0.00 in 0 W/m2
04:29 59 °F 55.8 °F 29.87 in Calm   3 mph 89% 0.00 in 0 W/m2
04:34 58.9 °F 55.7 °F 29.87 in Calm   3 mph 89% 0.00 in 0 W/m2
04:39 58.8 °F 55.6 °F 29.88 in Calm     89% 0.00 in 0 W/m2
04:44 58.8 °F 55.5 °F 29.87 in Calm     89% 0.00 in 0 W/m2
04:49 58.7 °F 55.5 °F 29.87 in Calm     89% 0.00 in 0 W/m2
04:54 58.7 °F 55.4 °F 29.87 in Calm     89% 0.00 in 0 W/m2
04:59 58.6 °F 55.5 °F 29.87 in Calm     89.4% 0.00 in 0 W/m2
05:04 58.5 °F 55.6 °F 29.88 in Calm     90% 0.00 in 0 W/m2
05:09 58.4 °F 55.5 °F 29.88 in Calm     90% 0.00 in 0 W/m2
05:14 58.3 °F 55.4 °F 29.88 in Calm     90% 0.00 in 0 W/m2
05:19 58.2 °F 55.3 °F 29.88 in Calm     90% 0.00 in 0 W/m2
05:24 58.2 °F 55.3 °F 29.88 in Calm     90% 0.00 in 0 W/m2
05:29 58.1 °F 55.2 °F 29.88 in Calm     90% 0.00 in 0 W/m2
05:34 58 °F 55.1 °F 29.88 in Calm     90% 0.00 in 0 W/m2
05:39 57.9 °F 55 °F 29.88 in Calm     90% 0.00 in 0 W/m2
05:44 57.9 °F 55 °F 29.88 in Calm     90% 0.00 in 0 W/m2
05:49 57.8 °F 54.9 °F 29.88 in Calm     90% 0.00 in 0 W/m2
05:54 57.8 °F 55 °F 29.89 in Calm     90.5% 0.00 in 0 W/m2
05:59 57.8 °F 55.1 °F 29.89 in Calm     91% 0.00 in 0 W/m2
06:04 57.7 °F 54.8 °F 29.89 in Calm     90.1% 0.00 in 0 W/m2
06:09 57.6 °F 55 °F 29.89 in Calm     90.9% 0.00 in 0 W/m2
06:14 57.5 °F 54.9 °F 29.89 in Calm     91% 0.00 in 0 W/m2
06:19 57.6 °F 55 °F 29.89 in Calm     91% 0.00 in 0 W/m2
06:24 57.6 °F 55 °F 29.90 in Calm     91% 0.00 in 0 W/m2
06:29 57.6 °F 55 °F 29.90 in Calm     91% 0.00 in 0 W/m2
06:34 57.7 °F 55.1 °F 29.90 in Calm     91% 0.00 in 5 W/m2
06:39 57.7 °F 55.1 °F 29.90 in Calm     91% 0.00 in 7 W/m2
06:44 57.7 °F 55.1 °F 29.90 in Calm     91% 0.00 in 9 W/m2
06:49 57.7 °F 55.1 °F 29.90 in Calm     91% 0.00 in 11 W/m2
06:54 57.7 °F 55.1 °F 29.90 in Calm     91% 0.00 in 11 W/m2
06:59 57.8 °F 55.2 °F 29.90 in Calm     91% 0.00 in 12 W/m2
07:04 57.8 °F 55.2 °F 29.91 in Calm     91% 0.00 in 14 W/m2
07:09 57.9 °F 55.3 °F 29.91 in Calm     91% 0.00 in 16 W/m2
07:14 58 °F 55.4 °F 29.91 in Calm     91% 0.00 in 16 W/m2
07:19 58 °F 55.4 °F 29.91 in Calm     91% 0.00 in 16 W/m2
07:24 58.1 °F 55.7 °F 29.91 in Calm     91.7% 0.00 in 18 W/m2
07:29 58.2 °F 55.8 °F 29.91 in Calm     92% 0.00 in 19 W/m2
07:34 58.3 °F 56 °F 29.91 in Calm     92% 0.00 in 19 W/m2
07:39 58.4 °F 56.1 °F 29.92 in Calm     92% 0.00 in 21 W/m2
07:44 58.6 °F 56.1 °F 29.92 in Calm     91.5% 0.00 in 23 W/m2
07:49 58.7 °F 56.2 °F 29.92 in Calm     91.4% 0.00 in 25 W/m2
07:54 59 °F 56.4 °F 29.92 in Calm     91.1% 0.00 in 28 W/m2
07:59 59.3 °F 56.6 °F 29.92 in Calm     91% 0.00 in 32 W/m2
08:09 60.1 °F 57.1 °F 29.93 in Calm     89.7% 0.00 in 44 W/m2
08:14 60.6 °F 57.3 °F 29.93 in Calm     88.9% 0.00 in 51 W/m2
08:19 61.1 °F 57.5 °F 29.93 in Calm     87.9% 0.00 in 65 W/m2
08:24 61.6 °F 57.6 °F 29.93 in Calm     86.6% 0.00 in 98 W/m2
08:29 62.1 °F 57.8 °F 29.93 in Calm     85.8% 0.00 in 192 W/m2
08:33 62.5 °F 58 °F 29.93 in Calm     85% 0.00 in 360 W/m2
09:00 68.6 °F 60.4 °F 29.93 in Calm   1 mph 75% 0.00 in 422 W/m2
09:30 74.5 °F 63.7 °F 29.93 in Calm   5 mph 69% 0.00 in 522 W/m2
10:00 77.4 °F 62.4 °F 29.93 in Calm   4 mph 60% 0.00 in 608 W/m2
10:30 79 °F 63 °F 29.94 in West 1 mph 7 mph 58% 0.00 in 681 W/m2
11:00 80.5 °F 61.8 °F 29.94 in WSW 1 mph 11 mph 53% 0.00 in 742 W/m2
11:30 77.8 °F 60.9 °F 29.93 in West 3 mph 13 mph 56% 0.00 in 552 W/m2
12:04 77.8 °F 60.3 °F 29.92 in NW 2.1 mph 5 mph 55% 0.00 in 121 W/m2
12:09 77.4 °F 60.6 °F 29.92 in WNW 1.9 mph 7 mph 56.2% 0.00 in 165 W/m2
12:14 76.9 °F 60.4 °F 29.92 in WSW 1.9 mph 7 mph 56.9% 0.00 in 206 W/m2
12:19 76.7 °F 60.8 °F 29.92 in West 2 mph 7 mph 57.9% 0.00 in 262 W/m2
12:24 76.8 °F 61 °F 29.92 in WSW 0.9 mph 7 mph 58.1% 0.00 in 288 W/m2
12:29 77.1 °F 61.7 °F 29.92 in WNW 1.8 mph 7 mph 59% 0.00 in 211 W/m2
12:34 77.4 °F 61.6 °F 29.92 in NNW 2.1 mph 7 mph 58.3% 0.00 in 163 W/m2
12:39 77.5 °F 60.9 °F 29.92 in NW 3.6 mph 7 mph 56.8% 0.00 in 264 W/m2
12:44 77.4 °F 61.5 °F 29.92 in NW 2.1 mph 7 mph 58.1% 0.00 in 272 W/m2
12:49 77.4 °F 61.3 °F 29.92 in NNW 1.3 mph 7 mph 57.7% 0.00 in 390 W/m2
12:54 77.2 °F 60.9 °F 29.92 in NW 2.3 mph 8 mph 57.3% 0.00 in 390 W/m2
12:59 76.7 °F 60.3 °F 29.92 in WNW 1.5 mph 8 mph 56.9% 0.00 in 292 W/m2
13:04 76.6 °F 60.8 °F 29.92 in NW 1.3 mph 8 mph 58.1% 0.00 in 225 W/m2
13:09 76.8 °F 61.8 °F 29.92 in NW 0.3 mph 6 mph 59.8% 0.00 in 192 W/m2
13:14 76.8 °F 60 °F 29.92 in NW 1.7 mph 6 mph 56.3% 0.00 in 155 W/m2
13:19 76.4 °F 60 °F 29.92 in WNW 0.7 mph 6 mph 56.9% 0.00 in 142 W/m2
13:24 76.4 °F 60.6 °F 29.91 in WNW 0.9 mph 6 mph 58.1% 0.00 in 221 W/m2
13:29 76.8 °F 61.2 °F 29.92 in WNW 0.6 mph 6 mph 58.6% 0.00 in 264 W/m2
13:34 77.3 °F 61.1 °F 29.92 in West 3.5 mph 11 mph 57.3% 0.00 in 269 W/m2
13:39 77.5 °F 60.6 °F 29.92 in WNW 3.3 mph 11 mph 56% 0.00 in 369 W/m2
13:44 77.3 °F 60.7 °F 29.92 in WNW 2.3 mph 11 mph 56.5% 0.00 in 276 W/m2
13:49 77.1 °F 60.6 °F 29.92 in WNW 1.8 mph 11 mph 56.7% 0.00 in 232 W/m2
13:54 77.2 °F 60.7 °F 29.91 in West 0.7 mph 11 mph 56.9% 0.00 in 274 W/m2
13:59 77.4 °F 60.9 °F 29.91 in West 0.6 mph 11 mph 56.8% 0.00 in 155 W/m2
14:04 77.5 °F 60.4 °F 29.91 in West 1.3 mph 11 mph 55.6% 0.00 in 202 W/m2
14:09 77.5 °F 60.6 °F 29.91 in West 0.9 mph 6 mph 56% 0.00 in 158 W/m2
14:14 77.8 °F 60.3 °F 29.91 in West 0.5 mph 6 mph 55% 0.00 in 849 W/m2
14:19 78.1 °F 59.9 °F 29.91 in SW 1.4 mph 10 mph 53.4% 0.00 in 877 W/m2
14:24 78.5 °F 60.2 °F 29.91 in West 1.5 mph 10 mph 53.5% 0.00 in 900 W/m2
14:29 78.9 °F 59.9 °F 29.91 in WNW 2.8 mph 10 mph 52.3% 0.00 in 886 W/m2
14:34 79 °F 60 °F 29.90 in NW 2 mph 10 mph 52.2% 0.00 in 826 W/m2
14:39 79.3 °F 60.7 °F 29.90 in NW 1 mph 5 mph 53% 0.00 in 807 W/m2
14:44 79.8 °F 61.1 °F 29.90 in NW 1.7 mph 5 mph 52.9% 0.00 in 805 W/m2
14:49 80.3 °F 60.8 °F 29.90 in West 2.3 mph 6 mph 51.4% 0.00 in 793 W/m2
14:54 80.6 °F 60.6 °F 29.90 in West 2 mph 6 mph 50.7% 0.00 in 782 W/m2
14:59 80.7 °F 60.6 °F 29.90 in WSW 1.6 mph 6 mph 50.5% 0.00 in 772 W/m2
15:04 80.9 °F 60.4 °F 29.90 in West 1.7 mph 6 mph 49.7% 0.00 in 763 W/m2
15:09 81.1 °F 60.5 °F 29.90 in West 1 mph 5 mph 49.6% 0.00 in 759 W/m2
15:14 81.3 °F 60 °F 29.90 in WSW 0.7 mph 5 mph 48.5% 0.00 in 759 W/m2
15:19 81.1 °F 60.4 °F 29.90 in WSW 0.1 mph 5 mph 49.4% 0.00 in 768 W/m2
15:24 80.4 °F 59.8 °F 29.89 in Calm   5 mph 49.6% 0.00 in 761 W/m2
15:29 80.1 °F 59.8 °F 29.89 in Calm   5 mph 50% 0.00 in 752 W/m2
15:34 80.3 °F 60.3 °F 29.89 in WSW 0.6 mph 5 mph 50.5% 0.00 in 738 W/m2
15:39 80.7 °F 60.3 °F 29.89 in WSW 0.5 mph 3 mph 50% 0.00 in 701 W/m2
15:44 81.1 °F 60.5 °F 29.89 in WSW 1.2 mph 3 mph 49.6% 0.00 in 691 W/m2
15:49 81.2 °F 60 °F 29.89 in WSW 1.2 mph 5 mph 48.6% 0.00 in 668 W/m2
15:54 81 °F 59.8 °F 29.89 in West 0.5 mph 5 mph 48.5% 0.00 in 679 W/m2
15:59 80.5 °F 59.6 °F 29.89 in West 0.2 mph 5 mph 49.1% 0.00 in 677 W/m2
16:09 79.5 °F 60.3 °F 29.88 in West 0.8 mph 4 mph 51.9% 0.00 in 98 W/m2
16:14 79.4 °F 60.5 °F 29.88 in West 1.2 mph 5 mph 52.4% 0.00 in 69 W/m2
16:19 79.4 °F 60.6 °F 29.88 in West 1 mph 5 mph 52.6% 0.00 in 63 W/m2
16:24 79.4 °F 60.8 °F 29.88 in West 0.7 mph 5 mph 52.9% 0.00 in 44 W/m2
16:29 79.4 °F 61 °F 29.88 in West 0.3 mph 5 mph 53.4% 0.00 in 69 W/m2
16:34 79.1 °F 60.9 °F 29.89 in West 0.2 mph 5 mph 53.8% 0.00 in 100 W/m2
16:39 78.8 °F 60.7 °F 29.89 in West 0.7 mph 3 mph 53.8% 0.00 in 107 W/m2
16:44 78.7 °F 60.8 °F 29.88 in West 0.6 mph 4 mph 54.2% 0.00 in 79 W/m2
16:49 78.8 °F 60.3 °F 29.88 in WSW 0.8 mph 4 mph 53.2% 0.00 in 54 W/m2
16:54 78.6 °F 60.1 °F 29.88 in WSW 0.1 mph 4 mph 53% 0.00 in 42 W/m2
16:59 78.4 °F 60.7 °F 29.88 in Calm   4 mph 54.8% 0.00 in 44 W/m2
17:04 78.2 °F 61.1 °F 29.88 in Calm   4 mph 55.7% 0.00 in 40 W/m2
17:09 78.1 °F 60.7 °F 29.88 in Calm   2 mph 55.2% 0.00 in 54 W/m2
17:13 78 °F 60.5 °F 29.88 in WSW 1.1 mph 4 mph 54.8% 0.00 in 56 W/m2
17:19 77.9 °F 60.2 °F 29.88 in WSW 0.2 mph 4 mph 54.5% 0.00 in 63 W/m2
17:24 77.9 °F 60.3 °F 29.88 in WSW 0.4 mph 4 mph 54.7% 0.00 in 62 W/m2
17:29 77.9 °F 60.9 °F 29.88 in WSW 0.1 mph 4 mph 55.9% 0.00 in 49 W/m2
17:34 77.9 °F 60.9 °F 29.88 in WSW 0.3 mph 5 mph 55.9% 0.00 in 39 W/m2
17:39 77.9 °F 61 °F 29.88 in WSW 0.8 mph 5 mph 56% 0.00 in 35 W/m2
17:44 77.9 °F 60.7 °F 29.88 in WSW 0.2 mph 5 mph 55.6% 0.00 in 28 W/m2
17:49 77.8 °F 60.3 °F 29.88 in Calm   5 mph 55% 0.00 in 33 W/m2
17:54 77.6 °F 60.7 °F 29.89 in Calm   5 mph 56.1% 0.00 in 37 W/m2
17:59 77.5 °F 60.9 °F 29.89 in WSW 0.5 mph 5 mph 56.5% 0.00 in 39 W/m2
18:04 77.4 °F 60.8 °F 29.89 in Calm   5 mph 56.6% 0.00 in 39 W/m2
18:09 77.2 °F 60.3 °F 29.89 in WSW 0.3 mph 4 mph 56% 0.00 in 28 W/m2
18:14 77 °F 60.4 °F 29.89 in Calm   4 mph 56.6% 0.00 in 23 W/m2
18:19 76.9 °F 60.9 °F 29.89 in Calm   4 mph 57.7% 0.00 in 19 W/m2
18:24 76.7 °F 61 °F 29.89 in Calm   4 mph 58.3% 0.00 in 18 W/m2
18:29 76.6 °F 61.4 °F 29.89 in Calm   4 mph 59.4% 0.00 in 16 W/m2
18:34 76.4 °F 61.1 °F 29.88 in Calm   4 mph 59.2% 0.00 in 14 W/m2
18:39 76.2 °F 60.8 °F 29.88 in Calm     59% 0.00 in 14 W/m2
18:44 76 °F 61.1 °F 29.88 in Calm     59.9% 0.00 in 12 W/m2
18:49 75.8 °F 61 °F 29.88 in Calm     60.2% 0.00 in 11 W/m2
18:54 75.6 °F 61.2 °F 29.88 in Calm     61% 0.00 in 9 W/m2
18:59 75.3 °F 61 °F 29.89 in Calm     61% 0.00 in 7 W/m2
19:04 75 °F 60.7 °F 29.88 in Calm     61% 0.00 in 5 W/m2
19:09 74.8 °F 60.9 °F 29.89 in Calm     61.9% 0.00 in 0 W/m2
19:14 74.5 °F 60.6 °F 29.89 in Calm     62.1% 0.00 in 0 W/m2
19:19 74.1 °F 60.7 °F 29.89 in Calm     63% 0.00 in 0 W/m2
19:24 73.8 °F 60.4 °F 29.89 in Calm     63% 0.00 in 0 W/m2
19:29 73.4 °F 60.5 °F 29.89 in Calm     64% 0.00 in 0 W/m2
19:34 73.1 °F 60.6 °F 29.89 in Calm     64.8% 0.00 in 0 W/m2
19:39 72.7 °F 60.7 °F 29.89 in Calm     65.8% 0.00 in 0 W/m2
19:44 72.4 °F 60.8 °F 29.89 in Calm     66.8% 0.00 in 0 W/m2
19:49 72.1 °F 60.5 °F 29.89 in Calm     67% 0.00 in 0 W/m2
19:54 71.8 °F 60.6 °F 29.89 in Calm     68% 0.00 in 0 W/m2
19:59 71.5 °F 60.8 °F 29.89 in Calm     69% 0.00 in 0 W/m2
20:09 70.8 °F 60.5 °F 29.90 in Calm     70% 0.00 in 0 W/m2
20:14 70.5 °F 60.4 °F 29.90 in Calm     70.3% 0.00 in 0 W/m2
20:19 70.2 °F 60.4 °F 29.90 in Calm     71% 0.00 in 0 W/m2
20:24 69.9 °F 60.3 °F 29.90 in Calm     71.4% 0.00 in 0 W/m2
20:29 69.7 °F 60.4 °F 29.91 in Calm     72.2% 0.00 in 0 W/m2
20:34 69.5 °F 60.5 °F 29.91 in Calm     73% 0.00 in 0 W/m2
20:39 69.3 °F 60.4 °F 29.91 in Calm     73.4% 0.00 in 0 W/m2
20:44 69.1 °F 60.7 °F 29.91 in Calm     74.8% 0.00 in 0 W/m2
20:49 68.8 °F 60.9 °F 29.91 in Calm     76% 0.00 in 0 W/m2
20:54 68.5 °F 60.8 °F 29.91 in Calm     76.6% 0.00 in 0 W/m2
20:59 68.2 °F 60.8 °F 29.92 in Calm     77.1% 0.00 in 0 W/m2
21:04 68 °F 60.9 °F 29.92 in Calm     78% 0.00 in 0 W/m2
21:09 67.7 °F 60.9 °F 29.91 in Calm     78.7% 0.00 in 0 W/m2
21:14 67.6 °F 60.8 °F 29.91 in Calm     79% 0.00 in 0 W/m2
21:19 67.4 °F 60.7 °F 29.91 in Calm     79% 0.00 in 0 W/m2
21:24 67.3 °F 60.8 °F 29.91 in Calm     79.6% 0.00 in 0 W/m2
21:29 67.1 °F 60.8 °F 29.91 in Calm     80.3% 0.00 in 0 W/m2
21:34 66.9 °F 60.8 °F 29.91 in Calm     80.9% 0.00 in 0 W/m2
21:39 66.7 °F 60.7 °F 29.92 in Calm     81% 0.00 in 0 W/m2
21:44 66.6 °F 60.8 °F 29.92 in Calm     81.5% 0.00 in 0 W/m2
21:49 66.5 °F 60.8 °F 29.92 in Calm     82% 0.00 in 0 W/m2
21:54 66.5 °F 60.8 °F 29.92 in Calm     82% 0.00 in 0 W/m2
21:59 66.5 °F 60.8 °F 29.92 in Calm     82% 0.00 in 0 W/m2
22:04 66.4 °F 60.7 °F 29.92 in Calm     82% 0.00 in 0 W/m2
22:09 66.3 °F 60.8 °F 29.92 in Calm     82.6% 0.00 in 0 W/m2
22:14 66.2 °F 60.9 °F 29.92 in Calm     83% 0.00 in 0 W/m2
22:19 66.1 °F 60.8 °F 29.92 in Calm     83% 0.00 in 0 W/m2
22:24 66 °F 60.7 °F 29.92 in Calm     83% 0.00 in 0 W/m2
22:29 65.9 °F 60.6 °F 29.92 in Calm     83% 0.00 in 0 W/m2
22:34 65.7 °F 60.5 °F 29.92 in Calm     83.3% 0.00 in 0 W/m2
22:39 65.6 °F 60.6 °F 29.91 in Calm     84% 0.00 in 0 W/m2
22:44 65.4 °F 60.5 °F 29.92 in Calm     84% 0.00 in 0 W/m2
22:49 65.3 °F 60.4 °F 29.92 in Calm     84.1% 0.00 in 0 W/m2
22:54 65.2 °F 60.5 °F 29.92 in Calm     84.7% 0.00 in 0 W/m2
22:59 65 °F 60.4 °F 29.92 in Calm     85% 0.00 in 0 W/m2
23:04 64.9 °F 60.3 °F 29.92 in Calm     85% 0.00 in 0 W/m2
23:09 64.9 °F 60.6 °F 29.91 in Calm     86% 0.00 in 0 W/m2
23:14 64.8 °F 60.5 °F 29.91 in Calm     86% 0.00 in 0 W/m2
23:19 64.7 °F 60.5 °F 29.91 in Calm     86% 0.00 in 0 W/m2
23:24 64.6 °F 60.4 °F 29.91 in Calm     86% 0.00 in 0 W/m2
23:29 64.5 °F 60.3 °F 29.91 in Calm     86% 0.00 in 0 W/m2
23:34 64.4 °F 60.1 °F 29.91 in Calm     86% 0.00 in 0 W/m2
23:39 64.2 °F 59.9 °F 29.90 in Calm     86% 0.00 in 0 W/m2
23:44 64 °F 60 °F 29.91 in Calm     86.8% 0.00 in 0 W/m2
23:49 63.8 °F 59.9 °F 29.90 in Calm     87% 0.00 in 0 W/m2
23:54 63.7 °F 60.1 °F 29.90 in Calm     87.9% 0.00 in 0 W/m2
23:59 63.6 °F 60 °F 29.90 in Calm     88% 0.00 in 0 W/m2
Hartford County Weather
Compliments of Weather Underground - 2 mb